createdAt,value
2022-08-08T00:01:08.975Z,11.60
2022-08-08T00:04:16.350Z,53.10
2022-08-08T00:06:57.642Z,20.90
2022-08-08T00:09:38.022Z,13.60
2022-08-08T00:12:10.688Z,1.00
2022-08-08T00:15:00.990Z,22.40
2022-08-08T00:18:02.408Z,20.90
2022-08-08T00:20:38.941Z,44.90
2022-08-08T00:23:42.302Z,85.20
2022-08-08T00:26:14.754Z,41.00
2022-08-08T00:28:52.803Z,94.30
2022-08-08T00:32:28.634Z,99.90
2022-08-08T00:34:59.332Z,94.60
2022-08-08T00:37:47.298Z,99.90
2022-08-08T00:41:11.040Z,99.90
2022-08-08T00:43:45.652Z,99.90
2022-08-08T00:46:22.239Z,99.90
2022-08-08T00:49:22.130Z,99.90
2022-08-08T00:52:19.583Z,99.90
2022-08-08T00:55:17.748Z,99.90
2022-08-08T00:57:58.019Z,99.90
2022-08-08T01:00:37.937Z,99.90
2022-08-08T01:04:02.741Z,99.90
2022-08-08T01:06:32.598Z,99.90
2022-08-08T01:09:36.236Z,99.90
2022-08-08T01:12:30.268Z,99.90
2022-08-08T01:15:43.815Z,99.90
2022-08-08T01:19:02.793Z,99.90
2022-08-08T01:22:13.126Z,99.90
2022-08-08T01:24:56.886Z,99.90
2022-08-08T01:27:44.318Z,99.90
2022-08-08T01:30:53.785Z,99.90
2022-08-08T01:33:27.939Z,99.90
2022-08-08T01:36:12.748Z,99.90
2022-08-08T01:38:56.302Z,99.90
2022-08-08T01:41:34.398Z,99.90
2022-08-08T01:44:36.582Z,99.90
2022-08-08T01:48:13.847Z,99.90
2022-08-08T01:50:42.665Z,99.90
2022-08-08T01:55:14.830Z,99.90
2022-08-08T01:56:46.840Z,99.90
2022-08-08T02:00:02.314Z,99.90
2022-08-08T02:02:56.281Z,99.90
2022-08-08T02:05:56.275Z,99.90
2022-08-08T02:08:53.306Z,99.90
2022-08-08T02:11:52.929Z,99.90
2022-08-08T02:14:28.711Z,99.90
2022-08-08T02:16:55.832Z,99.20
2022-08-08T02:20:08.409Z,99.90
2022-08-08T02:22:33.586Z,99.90
2022-08-08T02:25:23.530Z,99.90
2022-08-08T02:28:34.870Z,90.10
2022-08-08T02:31:58.184Z,99.90
2022-08-08T02:35:10.667Z,97.90
2022-08-08T02:37:56.681Z,99.90
2022-08-08T02:40:50.675Z,41.00
2022-08-08T03:11:48.101Z,99.90
2022-08-08T03:15:57.498Z,1.00
2022-08-08T03:17:03.139Z,99.90
2022-08-08T03:20:03.658Z,1.00
2022-08-08T03:22:51.193Z,1.00
2022-08-08T03:25:20.366Z,1.00
2022-08-08T03:28:04.951Z,99.90
2022-08-08T03:30:32.281Z,1.00
2022-08-08T03:33:56.260Z,99.90
2022-08-08T03:36:10.321Z,53.50
2022-08-08T03:38:57.778Z,1.00
2022-08-08T03:42:11.704Z,83.20
2022-08-08T03:44:25.777Z,1.00
2022-08-08T03:46:53.090Z,83.50
2022-08-08T03:49:58.755Z,1.00
2022-08-08T03:52:13.800Z,1.00
2022-08-08T03:55:02.268Z,1.00
2022-08-08T03:58:33.453Z,1.00
2022-08-08T04:00:26.064Z,1.00
2022-08-08T04:03:02.107Z,1.00
2022-08-08T04:05:39.959Z,1.00
2022-08-08T04:08:33.276Z,1.00
2022-08-08T04:11:10.606Z,99.90
2022-08-08T04:14:33.341Z,1.00
2022-08-08T04:16:40.164Z,1.60
2022-08-08T04:19:23.132Z,99.90
2022-08-08T04:21:50.974Z,99.90
2022-08-08T04:24:28.116Z,1.00
2022-08-08T04:26:57.524Z,99.90
2022-08-08T04:29:26.089Z,99.90
2022-08-08T04:31:58.591Z,99.50
2022-08-08T04:34:32.023Z,78.50
2022-08-08T04:37:10.153Z,1.00
2022-08-08T04:40:04.596Z,1.00
2022-08-08T04:42:27.090Z,1.00
2022-08-08T04:44:58.054Z,1.00
2022-08-08T04:47:25.965Z,1.00
2022-08-08T04:50:00.918Z,1.00
2022-08-08T04:52:34.367Z,1.00
2022-08-08T04:55:02.525Z,1.00
2022-08-08T04:57:31.634Z,1.00
2022-08-08T05:00:02.279Z,1.00
2022-08-08T05:02:30.828Z,1.00
2022-08-08T05:04:59.375Z,1.00
2022-08-08T05:07:37.716Z,1.00
2022-08-08T05:10:08.846Z,1.00
2022-08-08T05:12:53.473Z,1.00
2022-08-08T05:16:48.192Z,1.00
2022-08-08T05:18:14.031Z,1.00
2022-08-08T05:20:50.243Z,1.00
2022-08-08T05:23:17.550Z,1.00
2022-08-08T05:25:44.389Z,1.00
2022-08-08T05:28:14.798Z,1.00
2022-08-08T05:30:47.199Z,1.00
2022-08-08T05:33:14.835Z,1.00
2022-08-08T05:35:45.441Z,1.00
2022-08-08T05:38:31.334Z,1.00
2022-08-08T05:41:00.993Z,1.00
2022-08-08T05:44:02.423Z,1.00
2022-08-08T05:46:21.667Z,1.00
2022-08-08T05:48:54.396Z,1.00
2022-08-08T05:51:22.446Z,1.00
2022-08-08T05:54:25.840Z,1.00
2022-08-08T05:56:42.576Z,1.00
2022-08-08T05:59:59.975Z,1.00
2022-08-08T06:02:43.747Z,1.00
2022-08-08T06:05:33.674Z,1.00
2022-08-08T06:08:20.384Z,1.00
2022-08-08T06:10:51.803Z,1.00
2022-08-08T06:13:22.934Z,1.00
2022-08-08T06:15:54.882Z,1.00
2022-08-08T06:18:25.605Z,1.00
2022-08-08T06:20:56.498Z,1.00
2022-08-08T06:23:48.554Z,1.00
2022-08-08T06:26:42.837Z,1.00
2022-08-08T06:29:04.015Z,1.00
2022-08-08T06:32:11.271Z,99.90
2022-08-08T06:34:56.501Z,99.90
2022-08-08T06:37:39.517Z,99.90
2022-08-08T06:40:16.114Z,99.90
2022-08-08T06:43:09.454Z,99.90
2022-08-08T06:45:39.014Z,99.90
2022-08-08T06:48:06.243Z,99.90
2022-08-08T06:50:33.522Z,99.90
2022-08-08T06:53:09.657Z,99.90
2022-08-08T06:55:41.795Z,99.90
2022-08-08T06:58:08.809Z,99.90
2022-08-08T07:00:40.921Z,99.90
2022-08-08T07:03:51.708Z,99.90
2022-08-08T07:06:03.513Z,99.90
2022-08-08T07:08:37.174Z,99.90
2022-08-08T07:11:05.370Z,99.90
2022-08-08T07:14:01.176Z,99.20
2022-08-08T07:16:54.405Z,99.90
2022-08-08T07:19:48.569Z,99.90
2022-08-08T07:22:22.193Z,34.50
2022-08-08T07:24:59.995Z,1.00
2022-08-08T07:27:47.017Z,1.00
2022-08-08T07:30:21.293Z,1.00
2022-08-08T07:32:53.636Z,1.00
2022-08-08T07:35:21.983Z,1.00
2022-08-08T07:38:04.709Z,1.00
2022-08-08T07:40:37.457Z,1.00
2022-08-08T07:43:09.412Z,1.00
2022-08-08T07:46:05.239Z,1.00
2022-08-08T07:48:23.926Z,1.00
2022-08-08T07:50:54.903Z,1.00
2022-08-08T07:54:00.781Z,1.00
2022-08-08T07:56:36.220Z,1.00
2022-08-08T07:59:08.743Z,1.00
2022-08-08T08:02:33.002Z,1.00
2022-08-08T08:04:40.008Z,1.00
2022-08-08T08:07:08.814Z,2.10
2022-08-08T08:09:39.368Z,1.00
2022-08-08T08:12:07.274Z,1.00
2022-08-08T08:14:41.714Z,1.00
2022-08-08T08:17:09.725Z,34.60
2022-08-08T08:19:45.640Z,16.70
2022-08-08T08:22:12.911Z,46.60
2022-08-08T08:24:46.560Z,25.30
2022-08-08T08:27:13.687Z,8.30
2022-08-08T08:29:42.308Z,19.20
2022-08-08T08:32:10.955Z,43.70
2022-08-08T08:34:43.063Z,42.90
2022-08-08T08:37:10.300Z,29.10
2022-08-08T08:40:00.147Z,1.00
2022-08-08T08:42:31.643Z,1.00
2022-08-08T08:45:21.664Z,19.20
2022-08-08T08:47:53.527Z,9.10
2022-08-08T08:50:31.710Z,21.40
2022-08-08T08:53:28.202Z,1.00
2022-08-08T08:55:53.033Z,7.30
2022-08-08T08:58:42.346Z,99.90
2022-08-08T09:01:15.208Z,27.70
2022-08-08T09:03:50.694Z,99.90
2022-08-08T09:06:28.319Z,99.90
2022-08-08T09:09:35.222Z,99.90
2022-08-08T09:12:09.626Z,99.90
2022-08-08T09:14:42.287Z,99.90
2022-08-08T09:17:17.856Z,99.90
2022-08-08T09:21:58.690Z,99.90
2022-08-08T09:22:36.042Z,99.90
2022-08-08T09:25:04.431Z,99.90
2022-08-08T09:27:56.236Z,99.90
2022-08-08T09:30:21.952Z,99.90
2022-08-08T09:33:12.984Z,99.90
2022-08-08T09:35:48.997Z,99.90
2022-08-08T09:38:35.741Z,99.90
2022-08-08T09:42:14.501Z,99.90
2022-08-08T09:44:58.030Z,99.90
2022-08-08T09:48:03.950Z,99.90
2022-08-08T09:50:26.753Z,99.90
2022-08-08T09:52:57.555Z,99.90
2022-08-08T09:55:51.448Z,99.90
2022-08-08T09:58:27.741Z,99.90
2022-08-08T10:01:14.366Z,99.90
2022-08-08T10:03:46.194Z,99.90
2022-08-08T10:06:29.385Z,99.90
2022-08-08T10:08:57.296Z,99.90
2022-08-08T10:12:27.135Z,99.90
2022-08-08T10:14:28.401Z,99.90
2022-08-08T10:16:59.149Z,99.90
2022-08-08T10:19:46.200Z,99.90
2022-08-08T10:22:27.577Z,99.90
2022-08-08T10:25:05.608Z,99.90
2022-08-08T10:27:43.697Z,99.90
2022-08-08T10:30:16.651Z,99.90
2022-08-08T10:33:00.897Z,99.90
2022-08-08T10:36:09.273Z,99.90
2022-08-08T10:38:20.418Z,99.90
2022-08-08T10:40:52.002Z,99.90
2022-08-08T10:43:20.348Z,99.90
2022-08-08T10:45:56.800Z,99.90
2022-08-08T10:48:57.610Z,99.90
2022-08-08T10:51:26.177Z,99.90
2022-08-08T10:53:57.479Z,99.90
2022-08-08T10:56:27.471Z,99.90
2022-08-08T10:59:09.693Z,99.90
2022-08-08T11:01:41.203Z,99.90
2022-08-08T11:04:10.860Z,99.90
2022-08-08T11:06:41.364Z,99.90
2022-08-08T11:09:19.758Z,99.90
2022-08-08T11:12:05.382Z,99.90
2022-08-08T11:15:08.659Z,99.90
2022-08-08T11:18:00.963Z,99.90
2022-08-08T11:20:28.019Z,99.90
2022-08-08T11:23:01.270Z,99.90
2022-08-08T11:25:51.706Z,99.90
2022-08-08T11:28:28.998Z,99.90
2022-08-08T11:30:59.896Z,99.90
2022-08-08T11:33:52.558Z,99.90
2022-08-08T11:36:15.231Z,99.90
2022-08-08T11:38:55.236Z,99.90
2022-08-08T11:41:32.420Z,99.90
2022-08-08T11:44:02.029Z,99.90
2022-08-08T11:46:34.408Z,99.90
2022-08-08T11:49:05.001Z,99.90
2022-08-08T11:51:40.514Z,99.90
2022-08-08T11:54:31.853Z,99.90
2022-08-08T11:57:17.081Z,99.90
2022-08-08T12:00:02.004Z,99.90
2022-08-08T12:02:41.166Z,99.90
2022-08-08T12:05:12.333Z,1.00
2022-08-08T12:07:49.778Z,1.00
2022-08-08T12:10:20.240Z,1.00
2022-08-08T12:12:48.810Z,1.00
2022-08-08T12:15:39.966Z,1.00
2022-08-08T12:18:24.309Z,1.00
2022-08-08T12:20:54.694Z,1.00
2022-08-08T12:23:42.825Z,1.00
2022-08-08T12:26:28.596Z,1.00
2022-08-08T12:29:22.585Z,1.00
2022-08-08T12:32:13.147Z,1.00
2022-08-08T12:34:42.821Z,1.00
2022-08-08T12:37:12.373Z,1.00
2022-08-08T12:40:00.923Z,1.00
2022-08-08T12:42:33.686Z,1.00
2022-08-08T12:45:20.052Z,1.00
2022-08-08T12:48:36.605Z,1.00
2022-08-08T12:50:58.029Z,1.00
2022-08-08T12:53:36.493Z,1.00
2022-08-08T12:56:19.170Z,1.00
2022-08-08T12:58:54.466Z,1.00
2022-08-08T13:01:37.597Z,1.00
2022-08-08T13:04:24.425Z,1.00
2022-08-08T13:07:02.793Z,1.00
2022-08-08T13:10:05.248Z,1.00
2022-08-08T13:12:38.646Z,1.00
2022-08-08T13:15:16.569Z,1.00
2022-08-08T13:18:10.057Z,1.00
2022-08-08T13:20:30.973Z,1.00
2022-08-08T13:25:50.380Z,1.00
2022-08-08T13:28:32.023Z,1.00
2022-08-08T13:31:04.145Z,1.00
2022-08-08T13:33:42.415Z,1.00
2022-08-08T13:36:11.043Z,1.00
2022-08-08T13:38:39.761Z,1.00
2022-08-08T13:41:16.131Z,1.00
2022-08-08T13:43:46.839Z,1.00
2022-08-08T13:46:26.337Z,1.00
2022-08-08T13:49:11.859Z,1.00
2022-08-08T13:51:55.955Z,1.00
2022-08-08T13:54:31.167Z,1.00
2022-08-08T13:57:17.141Z,1.00
2022-08-08T13:59:49.334Z,1.00
2022-08-08T14:02:33.022Z,1.00
2022-08-08T14:05:21.737Z,1.00
2022-08-08T14:07:51.865Z,1.00
2022-08-08T14:10:32.942Z,1.00
2022-08-08T14:13:31.252Z,1.00
2022-08-08T14:16:04.036Z,1.00
2022-08-08T14:18:36.989Z,1.00
2022-08-08T14:21:20.935Z,1.00
2022-08-08T14:24:07.414Z,1.00
2022-08-08T14:26:45.921Z,1.00
2022-08-08T14:29:28.037Z,1.00
2022-08-08T14:32:09.443Z,1.00
2022-08-08T14:34:42.666Z,1.00
2022-08-08T14:37:13.028Z,1.00
2022-08-08T14:40:05.623Z,1.00
2022-08-08T14:42:36.521Z,1.00
2022-08-08T14:45:46.833Z,1.00
2022-08-08T14:48:27.547Z,1.00
2022-08-08T14:51:07.374Z,1.00
2022-08-08T14:53:55.502Z,1.00
2022-08-08T14:56:25.491Z,1.00
2022-08-08T14:58:56.173Z,1.00
2022-08-08T15:01:37.627Z,1.00
2022-08-08T15:04:09.510Z,1.00
2022-08-08T15:06:37.311Z,1.00
2022-08-08T15:09:04.485Z,1.00
2022-08-08T15:11:46.252Z,1.00
2022-08-08T15:14:19.528Z,1.00
2022-08-08T15:16:52.071Z,1.00
2022-08-08T15:19:18.783Z,1.00
2022-08-08T15:21:46.666Z,1.00
2022-08-08T15:24:16.101Z,1.00
2022-08-08T15:26:52.434Z,1.00
2022-08-08T15:29:22.688Z,1.00
2022-08-08T15:32:17.881Z,1.00
2022-08-08T15:34:38.857Z,1.00
2022-08-08T15:37:07.091Z,1.00
2022-08-08T15:39:38.146Z,1.00
2022-08-08T15:42:10.220Z,1.00
2022-08-08T15:44:38.381Z,1.00
2022-08-08T15:47:07.289Z,1.00
2022-08-08T15:49:44.371Z,1.00
2022-08-08T15:52:15.385Z,1.00
2022-08-08T15:54:46.257Z,1.00
2022-08-08T15:57:15.552Z,1.00
2022-08-08T16:00:25.838Z,1.00
2022-08-08T16:02:31.901Z,1.00
2022-08-08T16:05:04.111Z,1.00
2022-08-08T16:07:52.308Z,1.00
2022-08-08T16:13:15.272Z,1.00
2022-08-08T16:13:30.815Z,1.00
2022-08-08T16:16:13.504Z,1.00
2022-08-08T16:18:56.680Z,1.00
2022-08-08T16:21:26.952Z,1.00
2022-08-08T16:23:55.879Z,1.00
2022-08-08T16:26:34.215Z,1.00
2022-08-08T16:29:08.193Z,1.00
2022-08-08T16:31:37.632Z,1.00
2022-08-08T16:34:04.577Z,1.00
2022-08-08T16:36:33.303Z,1.00
2022-08-08T16:39:01.643Z,1.00
2022-08-08T16:41:43.727Z,1.00
2022-08-08T16:44:28.095Z,1.00
2022-08-08T16:47:22.012Z,1.00
2022-08-08T16:50:11.097Z,1.00
2022-08-08T16:55:06.391Z,1.00
2022-08-08T16:55:52.372Z,1.00
2022-08-08T16:58:17.718Z,1.00
2022-08-08T17:00:49.147Z,1.00
2022-08-08T17:03:24.870Z,1.00
2022-08-08T17:06:02.244Z,1.00
2022-08-08T17:08:29.332Z,1.00
2022-08-08T17:10:58.823Z,1.00
2022-08-08T17:13:41.422Z,1.00
2022-08-08T17:16:17.744Z,1.00
2022-08-08T17:18:49.155Z,1.00
2022-08-08T17:21:18.762Z,1.00
2022-08-08T17:24:00.066Z,1.00
2022-08-08T17:26:29.209Z,1.00
2022-08-08T17:29:03.966Z,1.00
2022-08-08T17:31:44.829Z,1.00
2022-08-08T17:34:49.420Z,1.00
2022-08-08T17:37:03.228Z,1.00
2022-08-08T17:40:03.361Z,1.00
2022-08-08T17:42:19.325Z,1.00
2022-08-08T17:44:49.146Z,1.00
2022-08-08T17:47:24.331Z,1.00
2022-08-08T17:50:01.433Z,1.00
2022-08-08T17:52:31.308Z,1.00
2022-08-08T17:55:01.043Z,1.00
2022-08-08T17:57:35.538Z,1.00
2022-08-08T18:00:13.089Z,1.00
2022-08-08T18:02:52.132Z,1.00
2022-08-08T18:05:23.163Z,1.00
2022-08-08T18:08:02.063Z,1.00
2022-08-08T18:10:31.449Z,1.00
2022-08-08T18:12:59.072Z,1.00
2022-08-08T18:15:28.411Z,1.00
2022-08-08T18:18:09.748Z,1.00
2022-08-08T18:20:59.242Z,1.00
2022-08-08T18:23:26.764Z,1.00
2022-08-08T18:25:53.503Z,1.00
2022-08-08T18:28:25.542Z,1.00
2022-08-08T18:30:52.758Z,1.00
2022-08-08T18:33:36.325Z,1.00
2022-08-08T18:36:18.678Z,1.00
2022-08-08T18:38:49.539Z,1.00
2022-08-08T18:41:16.595Z,1.00
2022-08-08T18:43:46.186Z,1.00
2022-08-08T18:46:55.862Z,1.00
2022-08-08T18:48:59.782Z,1.00
2022-08-08T18:51:53.157Z,1.00
2022-08-08T18:54:21.997Z,1.00
2022-08-08T18:56:53.615Z,1.00
2022-08-08T18:59:20.753Z,1.00
2022-08-08T19:02:26.123Z,1.00
2022-08-08T19:04:37.381Z,1.00
2022-08-08T19:07:04.330Z,1.00
2022-08-08T19:09:49.681Z,1.00
2022-08-08T19:12:19.154Z,1.00
2022-08-08T19:14:46.565Z,1.00
2022-08-08T19:17:29.351Z,1.00
2022-08-08T19:20:02.883Z,1.00
2022-08-08T19:22:30.043Z,1.00
2022-08-08T19:25:59.842Z,1.00
2022-08-08T19:27:57.486Z,1.00
2022-08-08T19:30:28.104Z,1.00
2022-08-08T19:32:58.060Z,1.00
2022-08-08T19:35:44.096Z,1.00
2022-08-08T19:38:12.857Z,1.00
2022-08-08T19:40:44.460Z,1.00
2022-08-08T19:43:12.006Z,1.00
2022-08-08T19:45:59.006Z,1.00
2022-08-08T19:48:29.370Z,1.00
2022-08-08T19:51:01.653Z,1.00
2022-08-08T19:53:51.184Z,1.00
2022-08-08T19:56:25.820Z,1.00
2022-08-08T19:59:04.320Z,1.00
2022-08-08T20:02:01.314Z,1.00
2022-08-08T20:04:21.208Z,1.00
2022-08-08T20:06:50.710Z,1.00
2022-08-08T20:09:22.793Z,1.00
2022-08-08T20:11:52.135Z,1.00
2022-08-08T20:14:34.232Z,1.00
2022-08-08T20:17:02.728Z,1.00
2022-08-08T20:19:33.441Z,1.00
2022-08-08T20:22:04.933Z,1.00
2022-08-08T20:24:40.704Z,1.00
2022-08-08T20:27:07.684Z,1.00
2022-08-08T20:29:55.271Z,1.00
2022-08-08T20:32:26.768Z,1.00
2022-08-08T20:35:01.379Z,1.00
2022-08-08T20:37:46.933Z,1.00
2022-08-08T20:40:16.527Z,1.00
2022-08-08T20:42:54.751Z,1.00
2022-08-08T20:45:54.639Z,1.00
2022-08-08T20:48:09.455Z,1.00
2022-08-08T20:50:36.864Z,1.00
2022-08-08T20:53:06.813Z,1.00
2022-08-08T20:55:45.292Z,1.00
2022-08-08T20:58:22.851Z,1.00
2022-08-08T21:00:50.282Z,1.00
2022-08-08T21:03:17.358Z,1.00
2022-08-08T21:05:59.065Z,1.00
2022-08-08T21:08:36.586Z,1.00
2022-08-08T21:11:13.850Z,1.00
2022-08-08T21:13:43.503Z,1.00
2022-08-08T21:16:28.818Z,1.00
2022-08-08T21:18:57.454Z,1.00
2022-08-08T21:21:39.749Z,1.00
2022-08-08T21:24:20.977Z,1.00
2022-08-08T21:26:54.876Z,1.00
2022-08-08T21:30:03.885Z,1.00
2022-08-08T21:32:14.295Z,1.00
2022-08-08T21:34:56.656Z,1.00
2022-08-08T21:37:53.793Z,1.00
2022-08-08T21:40:30.862Z,1.00
2022-08-08T21:42:58.600Z,1.00
2022-08-08T21:48:00.625Z,1.00
2022-08-08T21:48:19.898Z,1.00
2022-08-08T21:50:51.087Z,1.00
2022-08-08T21:54:23.307Z,1.00
2022-08-08T21:56:27.037Z,1.00
2022-08-08T21:58:55.472Z,1.00
2022-08-08T22:01:39.471Z,1.00
2022-08-08T22:04:12.204Z,1.00
2022-08-08T22:06:40.479Z,1.00
2022-08-08T22:09:09.686Z,1.00
2022-08-08T22:11:59.199Z,1.00
2022-08-08T22:14:26.765Z,1.00
2022-08-08T22:16:56.111Z,1.00
2022-08-08T22:19:24.157Z,1.00
2022-08-08T22:21:52.907Z,1.00
2022-08-08T22:24:28.014Z,1.00
2022-08-08T22:27:01.687Z,1.00
2022-08-08T22:29:59.449Z,1.00
2022-08-08T22:32:18.902Z,1.00
2022-08-08T22:34:50.751Z,1.00
2022-08-08T22:37:48.693Z,1.00
2022-08-08T22:40:07.679Z,1.00
2022-08-08T22:42:45.740Z,1.00
2022-08-08T22:45:14.829Z,1.00
2022-08-08T22:47:48.601Z,1.00
2022-08-08T22:50:27.445Z,1.00
2022-08-08T22:54:31.844Z,1.00
2022-08-08T22:55:59.641Z,1.00
2022-08-08T22:58:34.365Z,1.00
2022-08-08T23:01:26.539Z,1.00
2022-08-08T23:03:55.853Z,1.00
2022-08-08T23:06:27.151Z,1.00
2022-08-08T23:09:00.005Z,1.00
2022-08-08T23:11:30.887Z,1.00
2022-08-08T23:14:17.956Z,1.00
2022-08-08T23:16:54.405Z,1.00
2022-08-08T23:19:30.735Z,1.00
2022-08-08T23:22:00.358Z,1.00
2022-08-08T23:24:27.156Z,1.00
2022-08-08T23:27:03.730Z,1.00
2022-08-08T23:29:31.149Z,1.00
2022-08-08T23:31:58.334Z,1.00
2022-08-08T23:34:25.246Z,1.00
2022-08-08T23:36:58.292Z,1.00
2022-08-08T23:39:31.824Z,1.00
2022-08-08T23:42:00.808Z,1.00
2022-08-08T23:44:29.114Z,1.00
2022-08-08T23:49:04.912Z,1.00
2022-08-08T23:49:49.614Z,1.00
2022-08-08T23:52:30.274Z,1.00
2022-08-08T23:55:00.473Z,1.00
2022-08-08T23:57:53.277Z,1.00
